Time;durP1;ratioP1;P1;durP2;ratioP2;P2;SDS_P1;SDS_P2;PMS_P1;PMS_P2;Temp;Humidity;BMP_temperature;BMP_pressure;BME280_temperature;BME280_humidity;BME280_pressure;Samples;Min_cycle;Max_cycle;Signal;HPM_P1;HPM_P2
2023/09/03 00:00:40;;;;;;;1999.90;999.90;;;20.90;99.90;;;;;;5079960;28;20025;-76
2023/09/03 00:03:05;;;;;;;1999.90;999.90;;;20.80;99.90;;;;;;5094773;28;20111;-72
2023/09/03 00:05:31;;;;;;;1999.90;999.90;;;20.80;99.90;;;;;;5094471;28;20072;-77
2023/09/03 00:07:57;;;;;;;1999.90;999.90;;;20.80;99.90;;;;;;5094552;28;20024;-76
2023/09/03 00:10:23;;;;;;;1999.90;999.90;;;20.80;99.90;;;;;;5091347;28;20031;-76
2023/09/03 00:12:49;;;;;;;1999.90;999.90;;;20.70;99.90;;;;;;5074175;28;20024;-76
2023/09/03 00:15:15;;;;;;;1999.90;999.90;;;20.60;99.90;;;;;;5074351;28;20020;-72
2023/09/03 00:17:43;;;;;;;1999.90;999.90;;;20.60;99.90;;;;;;5074071;28;20048;-72
2023/09/03 00:20:10;;;;;;;1999.90;999.90;;;20.60;99.90;;;;;;5074251;28;20024;-77
2023/09/03 00:22:36;;;;;;;1999.90;999.90;;;20.60;99.90;;;;;;5071521;28;20127;-76
2023/09/03 00:25:02;;;;;;;1999.90;999.90;;;20.60;99.90;;;;;;5072597;28;20075;-77
2023/09/03 00:27:28;;;;;;;1999.90;999.90;;;20.60;99.90;;;;;;5073693;28;20070;-72
2023/09/03 00:29:53;;;;;;;1999.90;999.90;;;20.60;99.90;;;;;;5073859;28;20036;-72
2023/09/03 00:32:19;;;;;;;1999.90;999.90;;;20.60;99.90;;;;;;5074109;28;20031;-76
2023/09/03 00:34:45;;;;;;;1999.90;999.90;;;20.50;99.90;;;;;;5073677;28;20028;-75
2023/09/03 00:37:12;;;;;;;1999.90;999.90;;;20.50;99.90;;;;;;5073185;28;20026;-77
2023/09/03 00:39:37;;;;;;;1999.90;999.90;;;20.50;99.90;;;;;;5073921;28;20553;-77
2023/09/03 00:42:03;;;;;;;1999.90;999.90;;;20.40;99.90;;;;;;5073721;28;20067;-72
2023/09/03 00:44:29;;;;;;;1999.90;999.90;;;20.40;99.90;;;;;;5073351;28;20033;-76
2023/09/03 00:46:54;;;;;;;1999.90;999.90;;;20.40;99.90;;;;;;5074802;28;20020;-72
2023/09/03 00:49:23;;;;;;;1999.90;999.90;;;20.40;99.90;;;;;;5083449;28;20454;-76
2023/09/03 00:51:52;;;;;;;1999.90;999.90;;;20.40;99.90;;;;;;5093548;28;20073;-76
2023/09/03 00:54:21;;;;;;;1999.90;999.90;;;20.40;99.90;;;;;;5093708;28;20020;-72
2023/09/03 00:56:49;;;;;;;1999.90;999.90;;;20.40;99.90;;;;;;5093604;28;20024;-72
2023/09/03 00:59:18;;;;;;;1999.90;999.90;;;20.40;99.90;;;;;;5088295;28;20478;-76
2023/09/03 01:01:43;;;;;;;1999.90;999.90;;;20.40;99.90;;;;;;5084302;28;20039;-77
2023/09/03 01:04:10;;;;;;;1999.90;999.90;;;20.40;99.90;;;;;;5093578;28;20048;-76
2023/09/03 01:06:36;;;;;;;1999.90;999.90;;;20.40;99.90;;;;;;5093391;28;20020;-72
2023/09/03 01:09:02;;;;;;;1999.90;999.90;;;20.40;99.90;;;;;;5093347;28;20020;-72
2023/09/03 01:12:06;;;;;;;1999.90;999.90;;;20.40;99.90;;;;;;5081578;28;20016;-72
2023/09/03 01:14:43;;;;;;;1999.90;999.90;;;20.40;99.90;;;;;;5036112;28;20044;-76
2023/09/03 01:17:37;;;;;;;1999.90;999.90;;;20.40;99.90;;;;;;5053179;28;20108;-77
2023/09/03 01:20:09;;;;;;;;;;;20.40;99.90;;;;;;5053165;28;20044;-71
2023/09/03 01:23:28;;;;;;;1999.90;999.90;;;20.40;99.90;;;;;;5053231;28;20363;-73
2023/09/03 01:26:33;;;;;;;1999.90;999.90;;;20.40;99.90;;;;;;5004062;28;20501;-76
2023/09/03 01:29:00;;;;;;;1999.90;999.90;;;20.40;99.90;;;;;;4972369;28;20109;-77
2023/09/03 01:31:26;;;;;;;1999.90;999.90;;;20.50;99.90;;;;;;5040153;28;20488;-77
2023/09/03 01:34:01;;;;;;;1999.90;999.90;;;20.50;99.90;;;;;;5052809;28;20037;-72
2023/09/03 01:36:29;;;;;;;1999.90;999.90;;;20.50;99.90;;;;;;5061736;28;20367;-72
2023/09/03 01:38:59;;;;;;;1999.90;999.90;;;20.40;99.90;;;;;;5072769;28;20021;-77
2023/09/03 01:41:24;;;;;;;1999.90;999.90;;;20.40;99.90;;;;;;5073171;28;20356;-77
2023/09/03 01:43:50;;;;;;;1999.90;999.90;;;20.40;99.90;;;;;;5073193;28;20027;-77
2023/09/03 01:46:25;;;;;;;1999.90;999.90;;;20.30;99.90;;;;;;5072442;28;20072;-72
2023/09/03 01:49:18;;;;;;;1999.90;999.90;;;20.30;99.90;;;;;;5079453;28;20031;-71
2023/09/03 01:52:01;;;;;;;1999.90;999.90;;;20.30;99.90;;;;;;5092808;28;20405;-77
2023/09/03 01:54:35;;;;;;;1999.90;999.90;;;20.30;99.90;;;;;;5092954;28;20020;-77
2023/09/03 01:57:10;;;;;;;1999.90;999.90;;;20.20;99.90;;;;;;5092808;28;20038;-76
2023/09/03 01:59:44;;;;;;;1999.90;999.90;;;20.20;99.90;;;;;;5084382;28;20503;-77
2023/09/03 02:02:12;;;;;;;1999.90;999.90;;;20.20;99.90;;;;;;5079170;28;20395;-76
2023/09/03 02:04:38;;;;;;;1999.90;999.90;;;20.10;99.90;;;;;;5074201;28;20055;-76
2023/09/03 02:07:04;;;;;;;1999.90;999.90;;;20.10;99.90;;;;;;5076522;28;20029;-72
2023/09/03 02:09:30;;;;;;;1999.90;999.90;;;20.00;99.90;;;;;;5076652;28;20062;-77
2023/09/03 02:11:57;;;;;;;1999.90;999.90;;;19.90;99.90;;;;;;5076358;28;20036;-76
2023/09/03 02:14:22;;;;;;;1999.90;999.90;;;19.90;99.90;;;;;;5076350;28;20029;-72
2023/09/03 02:16:48;;;;;;;1999.90;999.90;;;19.90;99.90;;;;;;5076477;28;20039;-71
2023/09/03 02:19:13;;;;;;;1999.90;999.90;;;19.90;99.90;;;;;;5076126;28;20028;-76
2023/09/03 02:21:39;;;;;;;1999.90;999.90;;;19.90;99.90;;;;;;5076176;28;20032;-77
2023/09/03 02:24:05;;;;;;;1999.90;999.90;;;20.00;99.90;;;;;;5076320;28;20448;-77
2023/09/03 02:26:30;;;;;;;1999.90;999.90;;;20.00;99.90;;;;;;5076195;28;20035;-76
2023/09/03 02:28:56;;;;;;;1999.90;999.90;;;19.90;99.90;;;;;;5076507;28;20017;-77
2023/09/03 02:31:22;;;;;;;1999.90;999.90;;;19.90;99.90;;;;;;5076131;28;20415;-77
2023/09/03 02:33:48;;;;;;;1999.90;999.90;;;19.90;99.90;;;;;;5075974;28;20032;-77
2023/09/03 02:36:13;;;;;;;1999.90;999.90;;;19.90;99.90;;;;;;5075745;28;20071;-76
2023/09/03 02:38:40;;;;;;;1999.90;999.90;;;19.80;99.90;;;;;;5075899;28;20033;-72
2023/09/03 02:41:05;;;;;;;1999.90;999.90;;;19.80;99.90;;;;;;5076074;28;20103;-72
2023/09/03 02:43:31;;;;;;;1999.90;999.90;;;19.70;99.90;;;;;;5076304;28;20028;-77
2023/09/03 02:45:56;;;;;;;1999.90;999.90;;;19.70;99.90;;;;;;5075540;28;20036;-76
2023/09/03 02:48:22;;;;;;;1999.90;999.90;;;19.70;99.90;;;;;;5082088;28;20103;-76
2023/09/03 02:50:48;;;;;;;1999.90;999.90;;;19.70;99.90;;;;;;5075556;28;20035;-77
2023/09/03 02:53:13;;;;;;;1999.90;999.90;;;19.70;99.90;;;;;;5075771;28;20111;-76
2023/09/03 02:55:39;;;;;;;1999.90;999.90;;;19.70;99.90;;;;;;5075810;28;20029;-76
2023/09/03 02:58:04;;;;;;;1999.90;999.90;;;19.70;99.90;;;;;;5075744;28;20090;-76
2023/09/03 03:00:32;;;;;;;1999.90;999.90;;;19.70;99.90;;;;;;5082221;28;20033;-76
2023/09/03 03:02:58;;;;;;;1999.90;999.90;;;19.80;99.90;;;;;;5096016;28;20474;-76
2023/09/03 03:05:23;;;;;;;1999.90;999.90;;;19.80;99.90;;;;;;5095226;28;20054;-72
2023/09/03 03:07:49;;;;;;;1999.90;999.90;;;19.80;99.90;;;;;;5095703;28;20032;-72
2023/09/03 03:10:15;;;;;;;1999.90;999.90;;;19.80;99.90;;;;;;5093795;28;20012;-76
2023/09/03 03:12:44;;;;;;;1999.90;999.90;;;19.80;99.90;;;;;;5075410;28;20024;-76
2023/09/03 03:15:09;;;;;;;1999.90;999.90;;;19.80;99.90;;;;;;5074725;28;20387;-76
2023/09/03 03:17:35;;;;;;;1999.90;999.90;;;19.70;99.90;;;;;;5074706;28;20031;-72
2023/09/03 03:20:01;;;;;;;1999.90;999.90;;;19.60;99.90;;;;;;5074408;28;20024;-72
2023/09/03 03:22:26;;;;;;;1999.90;999.90;;;19.60;99.90;;;;;;5074407;28;20020;-72
2023/09/03 03:24:52;;;;;;;1999.90;999.90;;;19.50;99.90;;;;;;5075110;28;20028;-77
2023/09/03 03:27:17;;;;;;;1999.90;999.90;;;19.60;99.90;;;;;;5075097;28;20028;-77
2023/09/03 03:29:43;;;;;;;1999.90;999.90;;;19.60;99.90;;;;;;5075095;28;20474;-76
2023/09/03 03:32:09;;;;;;;1999.90;999.90;;;19.70;99.90;;;;;;5074921;28;20090;-71
2023/09/03 03:34:34;;;;;;;1999.90;999.90;;;19.70;99.90;;;;;;5074900;28;20099;-77
2023/09/03 03:37:00;;;;;;;1999.90;999.90;;;19.80;99.90;;;;;;5074841;28;20028;-76
2023/09/03 03:39:25;;;;;;;1999.90;999.90;;;19.80;99.90;;;;;;5074800;28;20032;-72
2023/09/03 03:41:51;;;;;;;1999.90;999.90;;;19.80;99.90;;;;;;5074858;28;20024;-77
2023/09/03 03:44:17;;;;;;;1999.90;999.90;;;19.80;99.90;;;;;;5075001;28;20032;-76
2023/09/03 03:46:42;;;;;;;1999.90;999.90;;;19.80;99.90;;;;;;5074149;28;20024;-72
2023/09/03 03:49:08;;;;;;;1999.90;999.90;;;19.70;99.90;;;;;;5084704;28;20059;-72
2023/09/03 03:51:34;;;;;;;1999.90;999.90;;;19.70;99.90;;;;;;5074763;28;20028;-76
2023/09/03 03:54:03;;;;;;;1999.90;999.90;;;19.70;99.90;;;;;;5074672;28;20563;-77
2023/09/03 03:56:29;;;;;;;1999.90;999.90;;;19.60;99.90;;;;;;5074520;28;20035;-72
2023/09/03 03:58:55;;;;;;;1999.90;999.90;;;19.60;99.90;;;;;;5075161;28;20423;-72
2023/09/03 04:01:23;;;;;;;1999.90;999.90;;;19.60;99.90;;;;;;5085105;28;20020;-76
2023/09/03 04:03:50;;;;;;;1999.90;999.90;;;19.60;99.90;;;;;;5094716;28;20063;-77
2023/09/03 04:06:17;;;;;;;1999.90;999.90;;;19.50;99.90;;;;;;5092570;28;20021;-76
2023/09/03 04:08:45;;;;;;;1999.90;999.90;;;19.50;99.90;;;;;;5094889;28;20028;-71
2023/09/03 04:11:16;;;;;;;1999.90;999.90;;;19.40;99.90;;;;;;5084938;28;20036;-72
2023/09/03 04:13:41;;;;;;;1999.90;999.90;;;19.40;99.90;;;;;;5074101;28;20107;-76
2023/09/03 04:16:12;;;;;;;1999.90;999.90;;;19.40;99.90;;;;;;5074351;28;20108;-76
2023/09/03 04:18:38;;;;;;;1999.90;999.90;;;19.40;99.90;;;;;;5074225;28;20031;-76
2023/09/03 04:21:04;;;;;;;1999.90;999.90;;;19.30;99.90;;;;;;5074202;28;20025;-76
2023/09/03 04:23:29;;;;;;;1999.90;999.90;;;19.30;99.90;;;;;;5074040;28;20017;-72
2023/09/03 04:25:56;;;;;;;1999.90;999.90;;;19.30;99.90;;;;;;5073693;28;20070;-71
2023/09/03 04:28:23;;;;;;;1999.90;999.90;;;19.30;99.90;;;;;;5073499;28;20039;-72
2023/09/03 04:30:59;;;;;;;1999.90;999.90;;;19.20;99.90;;;;;;5074185;28;20016;-76
2023/09/03 04:33:26;;;;;;;1999.90;999.90;;;19.30;99.90;;;;;;5079846;28;20025;-76
2023/09/03 04:35:59;;;;;;;1999.90;999.90;;;19.30;99.90;;;;;;5090021;28;20024;-71
2023/09/03 04:38:26;;;;;;;1999.90;999.90;;;19.40;99.90;;;;;;5080569;28;20099;-76
2023/09/03 04:40:52;;;;;;;1999.90;999.90;;;19.40;99.90;;;;;;5093784;28;20066;-76
2023/09/03 04:43:18;;;;;;;1999.90;999.90;;;19.30;99.90;;;;;;5093980;28;20032;-76
2023/09/03 04:45:48;;;;;;;1999.90;999.90;;;19.20;99.90;;;;;;5093956;28;20047;-77
2023/09/03 04:48:14;;;;;;;1999.90;999.90;;;19.20;99.90;;;;;;5083633;28;20028;-72
2023/09/03 04:50:39;;;;;;;1999.90;999.90;;;19.20;99.90;;;;;;5089690;28;20447;-72
2023/09/03 04:53:06;;;;;;;1999.90;999.90;;;19.20;99.90;;;;;;5093711;28;20060;-72
2023/09/03 04:55:36;;;;;;;1999.90;999.90;;;19.10;99.90;;;;;;5093944;28;20481;-77
2023/09/03 04:58:01;;;;;;;1999.90;999.90;;;19.10;99.90;;;;;;5093641;28;20035;-76
2023/09/03 05:00:31;;;;;;;1999.90;999.90;;;19.10;99.90;;;;;;5080240;28;20025;-72
2023/09/03 05:02:57;;;;;;;1999.90;999.90;;;19.10;99.90;;;;;;5093089;28;20031;-72
2023/09/03 05:05:23;;;;;;;1999.90;999.90;;;19.10;99.90;;;;;;5093284;28;20372;-76
2023/09/03 05:07:48;;;;;;;1999.90;999.90;;;19.20;99.90;;;;;;5093264;28;20023;-77
2023/09/03 05:10:14;;;;;;;1999.90;999.90;;;19.20;99.90;;;;;;5091736;28;20394;-76
2023/09/03 05:12:40;;;;;;;1999.90;999.90;;;19.20;99.90;;;;;;5073220;28;20035;-72
2023/09/03 05:15:13;;;;;;;1999.90;999.90;;;19.20;99.90;;;;;;5073224;28;20553;-72
2023/09/03 05:17:39;;;;;;;1999.90;999.90;;;19.10;99.90;;;;;;5073178;28;20040;-72
2023/09/03 05:20:06;;;;;;;1999.90;999.90;;;19.10;99.90;;;;;;5073096;28;20107;-76
2023/09/03 05:22:31;;;;;;;1999.90;999.90;;;19.10;99.90;;;;;;5072975;28;20054;-72
2023/09/03 05:24:57;;;;;;;1999.90;999.90;;;19.00;99.90;;;;;;5072914;28;20021;-76
2023/09/03 05:27:22;;;;;;;1999.90;999.90;;;19.00;99.90;;;;;;5073194;28;20024;-73
2023/09/03 05:29:48;;;;;;;1999.90;999.90;;;19.00;99.90;;;;;;5073345;28;20020;-72
2023/09/03 05:32:14;;;;;;;1999.90;999.90;;;19.10;99.90;;;;;;5072795;28;20487;-73
2023/09/03 05:34:40;;;;;;;1999.90;999.90;;;19.10;99.90;;;;;;5073095;28;20024;-77
2023/09/03 05:37:05;;;;;;;1999.90;999.90;;;19.20;99.90;;;;;;5073845;28;20055;-76
2023/09/03 05:39:31;;;;;;;1999.90;999.90;;;19.20;99.90;;;;;;5080895;28;20387;-72
2023/09/03 05:41:57;;;;;;;1999.90;999.90;;;19.20;99.90;;;;;;5091827;28;20032;-77
2023/09/03 05:44:23;;;;;;;1999.90;999.90;;;19.20;99.90;;;;;;5093207;28;20516;-72
2023/09/03 05:46:48;;;;;;;1999.90;999.90;;;19.20;99.90;;;;;;5086883;28;20027;-71
2023/09/03 05:49:14;;;;;;;1999.90;999.90;;;19.20;99.90;;;;;;5081660;28;20036;-76
2023/09/03 05:51:40;;;;;;;1999.90;999.90;;;19.20;99.90;;;;;;5087727;28;20073;-72
2023/09/03 05:54:07;;;;;;;1999.90;999.90;;;19.20;99.90;;;;;;5083772;28;20487;-71
2023/09/03 05:56:34;;;;;;;1999.90;999.90;;;19.30;99.90;;;;;;5093384;28;20028;-72
2023/09/03 05:59:05;;;;;;;1999.90;999.90;;;19.20;99.90;;;;;;5087656;28;20058;-76
2023/09/03 06:01:31;;;;;;;1999.90;999.90;;;19.30;99.90;;;;;;5077857;28;20102;-76
2023/09/03 06:03:57;;;;;;;1999.90;999.90;;;19.30;99.90;;;;;;5072531;28;20048;-72
2023/09/03 06:06:22;;;;;;;1999.90;999.90;;;19.30;99.90;;;;;;5072756;28;20029;-71
2023/09/03 06:08:48;;;;;;;1999.90;999.90;;;19.30;99.90;;;;;;5072186;28;20025;-71
2023/09/03 06:11:14;;;;;;;1999.90;999.90;;;19.30;99.90;;;;;;5072314;28;20033;-76
2023/09/03 06:13:39;;;;;;;1999.90;999.90;;;19.30;99.90;;;;;;5072550;28;20021;-76
2023/09/03 06:16:05;;;;;;;1999.90;999.90;;;19.40;99.90;;;;;;5072628;28;20043;-76
2023/09/03 06:18:30;;;;;;;1999.90;999.90;;;19.40;99.90;;;;;;5072701;28;20770;-71
2023/09/03 06:20:56;;;;;;;1999.90;999.90;;;19.40;99.90;;;;;;5071853;28;20122;-76
2023/09/03 06:23:22;;;;;;;1999.90;999.90;;;19.50;99.90;;;;;;5072252;28;20367;-76
2023/09/03 06:25:50;;;;;;;1999.90;999.90;;;19.50;99.90;;;;;;5072561;28;20083;-71
2023/09/03 06:28:15;;;;;;;1999.90;999.90;;;19.60;99.90;;;;;;5072450;28;20074;-72
2023/09/03 06:30:42;;;;;;;1999.90;999.90;;;19.70;99.90;;;;;;5072731;28;20032;-77
2023/09/03 06:33:08;;;;;;;1999.90;999.90;;;19.80;99.90;;;;;;5072515;28;20064;-72
2023/09/03 06:35:34;;;;;;;1999.90;999.90;;;19.80;99.90;;;;;;5072178;28;20032;-72
2023/09/03 06:37:59;;;;;;;1999.90;999.90;;;19.90;99.90;;;;;;5072248;28;20028;-72
2023/09/03 06:40:26;;;;;;;1999.90;999.90;;;20.00;99.90;;;;;;5072136;28;20036;-76
2023/09/03 06:42:52;;;;;;;1999.90;999.90;;;20.10;99.90;;;;;;5072502;28;20112;-76
2023/09/03 06:45:18;;;;;;;1999.90;999.90;;;20.30;99.90;;;;;;5078627;28;20020;-76
2023/09/03 06:47:44;;;;;;;1999.90;999.90;;;20.40;99.90;;;;;;5078456;28;20024;-72
2023/09/03 06:50:10;;;;;;;1999.90;999.90;;;20.50;99.90;;;;;;5084712;28;20024;-76
2023/09/03 06:52:36;;;;;;;1999.90;999.90;;;20.60;99.90;;;;;;5095913;28;20108;-76
2023/09/03 06:55:02;;;;;;;1999.90;999.90;;;20.70;99.90;;;;;;5096068;28;20035;-77
2023/09/03 06:57:28;;;;;;;1999.90;999.90;;;20.80;99.90;;;;;;5096167;28;20352;-72
2023/09/03 06:59:54;;;;;;;1999.90;999.90;;;21.00;99.90;;;;;;5087534;28;20403;-72
2023/09/03 07:02:20;;;;;;;1999.90;999.90;;;21.10;99.90;;;;;;5090094;28;20028;-77
2023/09/03 07:04:46;;;;;;;1999.90;999.90;;;21.20;99.90;;;;;;5095783;28;20056;-76
2023/09/03 07:07:12;;;;;;;1999.90;999.90;;;21.20;99.90;;;;;;5096004;28;20024;-77
2023/09/03 07:09:37;;;;;;;1999.90;999.90;;;21.40;99.90;;;;;;5095550;28;20031;-77
2023/09/03 07:12:03;;;;;;;1999.90;999.90;;;21.40;99.90;;;;;;5078773;28;20495;-72
2023/09/03 07:14:33;;;;;;;1999.90;999.90;;;21.60;99.90;;;;;;5075426;28;20032;-76
2023/09/03 07:16:59;;;;;;;1999.90;999.90;;;21.80;99.90;;;;;;5075453;28;20021;-77
2023/09/03 07:19:25;;;;;;;1999.90;999.90;;;21.90;99.90;;;;;;5075411;28;20027;-76
2023/09/03 07:21:51;;;;;;;1999.90;999.90;;;22.10;99.90;;;;;;5075242;28;20021;-77
2023/09/03 07:24:17;;;;;;;1999.90;999.90;;;22.30;99.90;;;;;;5074891;28;20078;-76
2023/09/03 07:26:43;;;;;;;1999.90;999.90;;;22.40;99.90;;;;;;5075490;28;20479;-71
2023/09/03 07:29:08;;;;;;;1999.90;999.90;;;22.60;99.90;;;;;;5075284;28;20032;-77
2023/09/03 07:31:37;;;;;;;1999.90;999.90;;;22.80;99.90;;;;;;5075364;28;20529;-76
2023/09/03 07:34:02;;;;;;;1999.90;999.90;;;22.90;99.90;;;;;;5075051;28;20107;-77
2023/09/03 07:36:28;;;;;;;1999.90;999.90;;;23.10;99.90;;;;;;5073948;28;20489;-72
2023/09/03 07:38:54;;;;;;;1999.90;999.90;;;23.20;99.90;;;;;;5075256;28;20105;-72
2023/09/03 07:41:19;;;;;;;1999.90;999.90;;;23.40;99.90;;;;;;5076022;28;20063;-76
2023/09/03 07:43:45;;;;;;;1999.90;999.90;;;23.60;99.90;;;;;;5082623;28;20430;-72
2023/09/03 07:46:10;;;;;;;1999.90;999.90;;;23.80;99.90;;;;;;5094995;28;20021;-76
2023/09/03 07:48:36;;;;;;;1999.90;999.90;;;24.00;99.90;;;;;;5082053;28;20055;-72
2023/09/03 07:51:02;;;;;;;1999.90;999.90;;;24.10;99.90;;;;;;5093365;28;20020;-73
2023/09/03 07:53:28;;;;;;;1999.90;999.90;;;24.30;99.90;;;;;;5095089;28;20034;-76
2023/09/03 07:55:54;;;;;;;1999.90;999.90;;;25.30;99.90;;;;;;5095010;28;20020;-77
2023/09/03 07:58:20;;;;;;;1999.90;999.90;;;27.70;99.90;;;;;;5093975;28;20031;-73
2023/09/03 08:00:46;;;;;;;1999.90;999.90;;;29.90;99.90;;;;;;5081319;28;20032;-72
2023/09/03 08:03:11;;;;;;;1999.90;999.90;;;31.30;99.90;;;;;;5094629;28;20069;-72
2023/09/03 08:05:37;;;;;;;1999.90;999.90;;;31.60;99.90;;;;;;5094373;28;20052;-72
2023/09/03 08:08:03;;;;;;;1999.90;999.90;;;32.20;99.90;;;;;;5094534;28;20036;-77
2023/09/03 08:10:28;;;;;;;1999.90;999.90;;;33.40;99.90;;;;;;5090700;28;20020;-75
2023/09/03 08:12:54;;;;;;;1999.90;999.90;;;33.50;99.90;;;;;;5080838;28;20054;-76
2023/09/03 08:15:19;;;;;;;1999.90;999.90;;;33.30;99.90;;;;;;5094342;28;20149;-71
2023/09/03 08:17:45;;;;;;;1999.90;999.90;;;33.90;99.90;;;;;;5093118;28;20569;-71
2023/09/03 08:20:12;;;;;;;1999.90;999.90;;;34.40;99.90;;;;;;5094470;28;20394;-76
2023/09/03 08:22:38;;;;;;;1999.90;999.90;;;34.90;99.50;;;;;;5094132;28;20045;-76
2023/09/03 08:25:04;;;;;;;1999.90;999.90;;;35.90;98.40;;;;;;5094055;28;20095;-76
2023/09/03 08:27:29;;;;;;;1999.90;999.90;;;36.00;97.60;;;;;;5092974;28;20012;-71
2023/09/03 08:29:56;;;;;;;1999.90;999.90;;;36.40;97.00;;;;;;5081055;28;20171;-71
2023/09/03 08:32:21;;;;;;;1999.90;999.90;;;36.10;96.60;;;;;;5094070;28;20475;-71
2023/09/03 08:34:47;;;;;;;1999.90;999.90;;;36.30;96.60;;;;;;5094308;28;20074;-76
2023/09/03 08:37:13;;;;;;;1999.90;999.90;;;36.10;96.10;;;;;;5077330;28;20017;-76
2023/09/03 08:39:38;;;;;;;1999.90;999.90;;;35.80;95.90;;;;;;5081399;28;20033;-76
2023/09/03 08:42:05;;;;;;;1999.90;999.90;;;36.70;95.90;;;;;;5093886;28;20541;-71
2023/09/03 08:44:48;;;;;;;1999.90;999.90;;;36.80;95.20;;;;;;5093926;28;20035;-71
2023/09/03 08:47:17;;;;;;;1999.90;999.90;;;36.90;95.00;;;;;;5088578;28;20395;-76
2023/09/03 08:49:44;;;;;;;1999.90;999.90;;;37.20;95.00;;;;;;5085026;28;20028;-76
2023/09/03 08:52:11;;;;;;;1999.90;999.90;;;37.40;94.70;;;;;;5093652;28;20039;-76
2023/09/03 08:54:37;;;;;;;1999.90;999.90;;;37.60;94.70;;;;;;5093391;28;20081;-71
2023/09/03 08:57:05;;;;;;;1999.90;999.90;;;37.60;94.20;;;;;;5093849;28;20016;-71
2023/09/03 08:59:31;;;;;;;1999.90;999.90;;;38.70;93.70;;;;;;5088593;28;20536;-72
2023/09/03 09:01:59;;;;;;;1999.90;999.90;;;37.70;94.00;;;;;;5084462;28;20028;-77
2023/09/03 09:04:29;;;;;;;1999.90;999.90;;;37.70;94.60;;;;;;5093482;28;20123;-77
2023/09/03 09:06:58;;;;;;;1999.90;999.90;;;38.10;94.20;;;;;;5093654;28;20054;-77
2023/09/03 09:09:26;;;;;;;1999.90;999.90;;;37.80;93.60;;;;;;5093591;28;20032;-72
2023/09/03 09:12:22;;;;;;;1999.90;999.90;;;37.90;95.10;;;;;;5078372;28;20036;-77
2023/09/03 09:14:59;;;;;;;1999.90;999.90;;;38.10;94.40;;;;;;5072259;28;20020;-77
2023/09/03 09:17:25;;;;;;;1999.90;999.90;;;38.40;93.20;;;;;;5073271;28;20060;-76
2023/09/03 09:19:51;;;;;;;1999.90;999.90;;;38.10;93.10;;;;;;5073712;28;20052;-77
2023/09/03 09:22:17;;;;;;;1999.90;999.90;;;38.10;93.30;;;;;;5072281;28;20495;-72
2023/09/03 09:24:46;;;;;;;1999.90;999.90;;;37.70;94.30;;;;;;5073089;28;20104;-76
2023/09/03 09:27:17;;;;;;;1999.90;999.90;;;37.10;94.80;;;;;;5072912;28;20020;-76
2023/09/03 09:29:44;;;;;;;1999.90;999.90;;;38.00;94.20;;;;;;5073150;28;20032;-77
2023/09/03 09:32:20;;;;;;;1999.90;999.90;;;37.50;94.50;;;;;;5072981;28;20028;-76
2023/09/03 09:34:46;;;;;;;1999.90;999.90;;;37.50;94.60;;;;;;5072257;28;20097;-72
2023/09/03 09:37:13;;;;;;;1999.90;999.90;;;37.80;94.80;;;;;;5072798;28;20020;-72
2023/09/03 09:39:48;;;;;;;1999.90;999.90;;;38.20;94.20;;;;;;5072677;28;20407;-76
2023/09/03 09:42:18;;;;;;;1999.90;999.90;;;37.60;94.10;;;;;;5072985;28;20035;-76
2023/09/03 09:44:53;;;;;;;1999.90;999.90;;;37.40;94.70;;;;;;5071732;28;20039;-76
2023/09/03 09:47:20;;;;;;;1999.90;999.90;;;37.10;94.90;;;;;;5075585;28;20064;-72
2023/09/03 09:49:47;;;;;;;1999.90;999.90;;;37.40;94.60;;;;;;5084120;28;20035;-72
2023/09/03 09:52:14;;;;;;;1999.90;999.90;;;37.40;94.20;;;;;;5092934;28;20085;-72
2023/09/03 09:54:41;;;;;;;1999.90;999.90;;;37.10;94.40;;;;;;5092929;28;20054;-76
2023/09/03 09:57:22;;;;;;;1999.90;999.90;;;36.90;94.70;;;;;;5093134;28;20048;-76
2023/09/03 09:59:52;;;;;;;1999.90;999.90;;;37.10;94.70;;;;;;5085795;28;20032;-72
2023/09/03 10:02:20;;;;;;;1999.90;999.90;;;36.60;94.90;;;;;;5086187;28;20035;-72
2023/09/03 10:04:47;;;;;;;1999.90;999.90;;;35.90;95.00;;;;;;5092411;28;20125;-76
2023/09/03 10:07:13;;;;;;;1999.90;999.90;;;34.80;96.00;;;;;;5092691;28;20020;-76
2023/09/03 10:09:40;;;;;;;1999.90;999.90;;;34.10;96.00;;;;;;5092889;28;20081;-76
2023/09/03 10:12:08;;;;;;;1999.90;999.90;;;33.90;97.50;;;;;;5075803;28;20029;-75
2023/09/03 10:14:34;;;;;;;1999.90;999.90;;;33.70;96.70;;;;;;5072432;28;20119;-71
2023/09/03 10:17:02;;;;;;;1999.90;999.90;;;33.20;96.00;;;;;;5072768;28;20033;-71
2023/09/03 10:19:36;;;;;;;1999.90;999.90;;;33.10;96.80;;;;;;5072850;28;20055;-75
2023/09/03 10:22:05;;;;;;;1999.90;999.90;;;32.60;97.80;;;;;;5072685;28;20447;-73
2023/09/03 10:24:34;;;;;;;1999.90;999.90;;;32.10;98.40;;;;;;5072436;28;20032;-78
2023/09/03 10:27:04;;;;;;;1999.90;999.90;;;32.20;99.00;;;;;;5076201;28;20032;-73
2023/09/03 10:29:32;;;;;;;1999.90;999.90;;;32.20;98.80;;;;;;5076376;28;20034;-77
2023/09/03 10:32:01;;;;;;;1999.90;999.90;;;31.80;99.90;;;;;;5076515;28;20021;-77
2023/09/03 10:34:29;;;;;;;1999.90;999.90;;;31.90;99.90;;;;;;5076441;28;20077;-77
2023/09/03 10:37:04;;;;;;;1999.90;999.90;;;31.90;99.90;;;;;;5075958;28;20111;-77
2023/09/03 10:39:30;;;;;;;1999.90;999.90;;;31.90;99.90;;;;;;5076078;28;20020;-73
2023/09/03 10:42:17;;;;;;;1999.90;999.90;;;31.60;99.90;;;;;;5076089;28;20028;-73
2023/09/03 10:44:57;;;;;;;1999.90;999.90;;;31.60;99.90;;;;;;5076369;28;20437;-77
2023/09/03 10:47:23;;;;;;;1999.90;999.90;;;31.50;99.90;;;;;;5079146;28;20045;-77
2023/09/03 10:49:55;;;;;;;1999.90;999.90;;;31.40;99.90;;;;;;5087306;28;20426;-77
2023/09/03 10:52:27;;;;;;;;;;;31.70;99.90;;;;;;5096441;28;20475;-73
2023/09/03 10:55:21;;;;;;;1999.90;999.90;;;31.80;98.30;;;;;;5095933;28;19904;-73
2023/09/03 10:58:07;;;;;;;1999.90;999.90;;;31.90;98.40;;;;;;5096346;28;20074;-77
2023/09/03 11:00:33;;;;;;;1999.90;999.90;;;31.90;99.00;;;;;;5075011;28;20075;-77
2023/09/03 11:03:18;;;;;;;1999.90;999.90;;;32.00;97.80;;;;;;5094594;28;20027;-76
2023/09/03 11:06:20;;;;;;;1999.90;999.90;;;31.90;98.30;;;;;;5093607;28;20048;-77
2023/09/03 11:08:47;;;;;;;1999.90;999.90;;;31.90;98.40;;;;;;5075661;28;20028;-77
2023/09/03 11:11:20;;;;;;;1999.90;999.90;;;32.00;98.60;;;;;;5073424;28;20490;-77
2023/09/03 11:13:53;;;;;;;1999.90;999.90;;;32.20;98.80;;;;;;5075481;28;20095;-77
2023/09/03 11:16:27;;;;;;;1999.90;999.90;;;32.10;98.80;;;;;;5075728;28;20479;-76
2023/09/03 11:18:52;;;;;;;1999.90;999.90;;;32.20;99.40;;;;;;5075246;28;20063;-74
2023/09/03 11:21:18;;;;;;;1999.90;999.90;;;32.30;99.10;;;;;;5074946;28;20029;-73
2023/09/03 11:24:03;;;;;;;1999.90;999.90;;;32.40;99.30;;;;;;5075243;28;20391;-76
2023/09/03 11:26:34;;;;;;;1999.90;999.90;;;32.50;99.40;;;;;;5075528;28;20744;-77
2023/09/03 11:29:02;;;;;;;1999.90;999.90;;;32.60;99.60;;;;;;5075124;28;20029;-77
2023/09/03 11:31:28;;;;;;;1999.90;999.90;;;32.40;99.50;;;;;;5074873;28;20028;-73
2023/09/03 11:33:57;;;;;;;1999.90;999.90;;;32.40;99.20;;;;;;5075181;28;20029;-73
2023/09/03 11:36:26;;;;;;;1999.90;999.90;;;32.40;99.70;;;;;;5074067;28;20024;-77
2023/09/03 11:38:54;;;;;;;1999.90;999.90;;;32.30;99.70;;;;;;5074799;28;20100;-77
2023/09/03 11:41:20;;;;;;;1999.90;999.90;;;32.40;99.90;;;;;;5075613;28;20024;-77
2023/09/03 11:43:47;;;;;;;1999.90;999.90;;;32.60;99.90;;;;;;5074786;28;20025;-73
2023/09/03 11:46:14;;;;;;;1999.90;999.90;;;32.40;99.90;;;;;;5074727;28;20476;-73
2023/09/03 11:48:40;;;;;;;1999.90;999.90;;;32.30;99.90;;;;;;5080973;28;20086;-76
2023/09/03 11:51:06;;;;;;;1999.90;999.90;;;32.40;99.90;;;;;;5093456;28;20134;-76
2023/09/03 11:53:40;;;;;;;1999.90;999.90;;;32.30;99.90;;;;;;5095140;28;20443;-77
2023/09/03 11:56:07;;;;;;;1999.90;999.90;;;32.30;99.90;;;;;;5095166;28;20020;-77
2023/09/03 11:58:32;;;;;;;1999.90;999.90;;;32.30;99.90;;;;;;5093330;28;20020;-73
2023/09/03 12:00:58;;;;;;;1999.90;999.90;;;32.30;99.90;;;;;;5081938;28;20028;-77
2023/09/03 12:03:24;;;;;;;1999.90;999.90;;;32.30;99.90;;;;;;5094562;28;20383;-77
2023/09/03 12:05:50;;;;;;;1999.90;999.90;;;32.80;99.90;;;;;;5094708;28;20142;-77